Time;durP1;ratioP1;P1;durP2;ratioP2;P2;SDS_P1;SDS_P2;PMS_P1;PMS_P2;Temp;Humidity;BMP_temperature;BMP_pressure;BME280_temperature;BME280_humidity;BME280_pressure;Samples;Min_cycle;Max_cycle;Signal;HPM_P1;HPM_P2
2022/11/22 00:02:24;;;;;;;15.38;7.43;;;;;;;5.55;100.00;99162.28;7371499;19;20024;-73
2022/11/22 00:04:53;;;;;;;15.52;7.55;;;;;;;5.49;100.00;99154.44;7367692;19;20098;-73
2022/11/22 00:07:23;;;;;;;14.43;7.25;;;;;;;5.52;100.00;99156.19;7367495;19;20072;-72
2022/11/22 00:09:53;;;;;;;15.90;7.85;;;;;;;5.47;100.00;99150.97;7368219;19;20014;-73
2022/11/22 00:12:24;;;;;;;17.33;7.05;;;;;;;5.44;100.00;99161.34;7370177;19;20018;-73
2022/11/22 00:14:55;;;;;;;15.60;7.55;;;;;;;5.44;100.00;99161.34;7368427;19;20106;-74
2022/11/22 00:17:28;;;;;;;16.73;7.40;;;;;;;5.40;100.00;99156.13;7367059;19;20018;-73
2022/11/22 00:19:59;;;;;;;14.77;8.48;;;;;;;5.43;100.00;99157.00;7363680;19;20006;-73
2022/11/22 00:22:29;;;;;;;12.18;6.82;;;;;;;5.38;100.00;99156.09;7368454;19;20015;-73
2022/11/22 00:25:05;;;;;;;18.85;6.90;;;;;;;5.46;100.00;99157.03;7370741;19;20023;-73
2022/11/22 00:27:38;;;;;;;14.02;7.65;;;;;;;5.41;100.00;99156.13;7363692;19;20694;-72
2022/11/22 00:30:10;;;;;;;14.15;6.80;;;;;;;5.42;100.00;99159.59;7367336;19;20089;-76
2022/11/22 00:32:42;;;;;;;13.45;7.13;;;;;;;5.48;100.00;99155.31;7371440;19;20053;-77
2022/11/22 00:35:13;;;;;;;15.38;6.45;;;;;;;5.45;100.00;99155.28;7367346;19;20013;-77
2022/11/22 00:37:43;;;;;;;14.48;6.25;;;;;;;5.50;100.00;99166.59;7367535;19;20022;-78
2022/11/22 00:40:13;;;;;;;16.52;6.57;;;;;;;5.54;100.00;99168.34;7369592;19;20312;-77
2022/11/22 00:42:43;;;;;;;16.80;6.75;;;;;;;5.57;100.00;99170.97;7368464;19;20014;-77
2022/11/22 00:45:12;;;;;;;14.18;6.20;;;;;;;5.58;100.00;99175.31;7373744;19;20070;-77
2022/11/22 00:47:45;;;;;;;15.57;6.93;;;;;;;5.58;100.00;99159.72;7365899;19;20018;-77
2022/11/22 00:50:14;;;;;;;12.93;5.82;;;;;;;5.59;100.00;99166.66;7371289;19;20817;-76
2022/11/22 00:52:44;;;;;;;18.75;6.53;;;;;;;5.56;100.00;99170.97;7368687;19;20010;-77
2022/11/22 00:55:18;;;;;;;15.95;6.78;;;;;;;5.52;100.00;99170.06;7364168;19;20018;-73
2022/11/22 00:57:49;;;;;;;13.23;6.45;;;;;;;5.45;100.00;99178.69;7366735;19;20022;-73
2022/11/22 01:00:26;;;;;;;17.40;6.20;;;;;;;5.47;100.00;99178.69;7369882;19;20090;-73
2022/11/22 01:03:00;;;;;;;13.15;6.13;;;;;;;5.45;100.00;99176.09;7364676;19;20252;-73
2022/11/22 01:05:41;;;;;;;25.63;6.75;;;;;;;5.40;100.00;99167.38;7365617;19;20003;-73
2022/11/22 01:08:14;;;;;;;12.55;5.55;;;;;;;5.35;100.00;99169.09;7365412;19;20010;-73
2022/11/22 01:11:07;;;;;;;12.88;6.03;;;;;;;5.33;100.00;99170.81;7368450;19;20024;-73
2022/11/22 01:13:40;;;;;;;13.45;4.78;;;;;;;5.33;100.00;99164.72;7376184;19;20038;-73
2022/11/22 01:16:13;;;;;;;17.70;5.47;;;;;;;5.34;100.00;99156.94;7375431;19;20126;-73
2022/11/22 01:18:47;;;;;;;15.73;5.68;;;;;;;5.35;100.00;99163.00;7379065;19;20717;-73
2022/11/22 01:21:19;;;;;;;;;;;;;;;5.34;100.00;99163.88;7376238;19;20014;-73
2022/11/22 01:24:13;;;;;;;13.98;5.18;;;;;;;5.36;100.00;99167.34;7372552;19;19927;-73
2022/11/22 01:26:56;;;;;;;12.18;4.57;;;;;;;5.38;100.00;99171.72;7376643;19;20010;-73
2022/11/22 01:29:33;;;;;;;12.75;4.55;;;;;;;5.31;100.00;99175.13;7374761;19;20018;-73
2022/11/22 01:32:06;;;;;;;21.13;5.63;;;;;;;5.30;100.00;99177.72;7374699;19;20015;-73
2022/11/22 01:34:42;;;;;;;12.90;4.10;;;;;;;5.26;100.00;99182.00;7376957;19;20011;-73
2022/11/22 01:37:17;;;;;;;13.93;4.95;;;;;;;5.22;100.00;99175.91;7372458;19;20014;-73
2022/11/22 01:39:51;;;;;;;9.98;4.10;;;;;;;5.27;100.00;99170.75;7374420;19;20118;-73
2022/11/22 01:42:28;;;;;;;13.82;4.85;;;;;;;5.23;100.00;99169.84;7375135;19;20014;-73
2022/11/22 01:45:38;;;;;;;13.20;4.35;;;;;;;5.21;100.00;99162.91;7368766;19;20011;-73
2022/11/22 01:48:23;;;;;;;11.67;3.93;;;;;;;5.21;100.00;99168.09;7373083;19;20035;-73
2022/11/22 01:51:25;;;;;;;;;;;;;;;5.18;100.00;99168.97;7370511;19;20062;-73
2022/11/22 01:54:01;;;;;;;16.73;3.75;;;;;;;5.18;100.00;99179.38;7376317;19;19998;-73
2022/11/22 01:56:36;;;;;;;15.55;4.05;;;;;;;5.18;100.00;99178.50;7378667;19;20017;-74
2022/11/22 01:59:14;;;;;;;14.38;3.83;;;;;;;5.11;100.00;99176.72;7371566;19;20022;-74
2022/11/22 02:01:47;;;;;;;8.73;3.50;;;;;;;5.03;100.00;99186.16;7371048;19;20014;-74
2022/11/22 02:04:29;;;;;;;18.38;5.70;;;;;;;5.11;100.00;99184.50;7371970;19;20040;-73
2022/11/22 02:07:11;;;;;;;10.25;4.15;;;;;;;5.02;100.00;99182.69;7372280;19;20048;-73
2022/11/22 02:09:43;;;;;;;14.15;4.47;;;;;;;5.03;100.00;99184.44;7371676;19;20017;-73
2022/11/22 02:12:20;;;;;;;17.35;4.05;;;;;;;5.05;100.00;99171.47;7370501;19;20010;-73
2022/11/22 02:14:55;;;;;;;13.85;3.97;;;;;;;5.07;100.00;99187.94;7370956;19;20044;-73
2022/11/22 02:17:29;;;;;;;12.50;3.47;;;;;;;5.03;100.00;99188.78;7374310;19;20018;-73
2022/11/22 02:20:02;;;;;;;12.70;3.70;;;;;;;5.05;100.00;99187.06;7372561;19;20581;-73
2022/11/22 02:22:58;;;;;;;9.63;2.90;;;;;;;5.04;100.00;99177.53;7373926;19;20017;-73
2022/11/22 02:25:40;;;;;;;16.65;3.45;;;;;;;5.03;100.00;99181.84;7370574;19;20022;-73
2022/11/22 02:28:17;;;;;;;13.00;3.88;;;;;;;5.05;100.00;99181.88;7369067;19;20707;-74
2022/11/22 02:30:52;;;;;;;13.43;3.60;;;;;;;4.99;100.00;99194.78;7371272;19;20006;-73
2022/11/22 02:33:23;;;;;;;9.30;3.03;;;;;;;4.92;100.00;99197.34;7373194;19;20011;-77
2022/11/22 02:35:53;;;;;;;11.52;3.10;;;;;;;4.89;100.00;99205.09;7373515;19;20014;-77
2022/11/22 02:38:26;;;;;;;18.75;4.53;;;;;;;4.95;100.00;99211.22;7375643;19;20018;-77
2022/11/22 02:40:58;;;;;;;10.85;2.92;;;;;;;4.95;100.00;99209.47;7371376;19;20104;-77
2022/11/22 02:43:34;;;;;;;14.25;3.17;;;;;;;4.89;100.00;99214.63;7371326;19;20485;-78
2022/11/22 02:46:08;;;;;;;10.23;3.40;;;;;;;4.95;100.00;99217.28;7370046;19;20025;-78
2022/11/22 02:48:42;;;;;;;11.50;2.70;;;;;;;4.99;100.00;99210.38;7369644;19;20026;-77
2022/11/22 02:51:15;;;;;;;12.85;3.15;;;;;;;4.92;100.00;99212.91;7371977;19;20010;-77
2022/11/22 02:53:45;;;;;;;10.27;3.58;;;;;;;4.95;100.00;99211.22;7375546;19;20045;-77
2022/11/22 02:56:15;;;;;;;13.18;3.75;;;;;;;4.90;100.00;99213.75;7374149;19;20022;-77
2022/11/22 02:58:47;;;;;;;10.93;3.45;;;;;;;4.96;100.00;99220.75;7374705;19;20702;-78
2022/11/22 03:01:17;;;;;;;13.63;3.65;;;;;;;4.99;100.00;99212.97;7375300;19;20023;-77
2022/11/22 03:03:47;;;;;;;9.32;2.53;;;;;;;4.98;100.00;99224.22;7374698;19;20022;-77
2022/11/22 03:06:16;;;;;;;10.73;2.90;;;;;;;4.97;100.00;99231.16;7374605;19;20546;-77
2022/11/22 03:08:47;;;;;;;12.93;3.38;;;;;;;4.90;100.00;99235.41;7376712;19;20014;-77
2022/11/22 03:11:24;;;;;;;13.05;2.85;;;;;;;4.91;100.00;99224.16;7374418;19;20022;-77
2022/11/22 03:13:56;;;;;;;10.90;3.22;;;;;;;4.96;100.00;99228.53;7369644;19;20692;-78
2022/11/22 03:16:26;;;;;;;12.13;3.35;;;;;;;4.91;100.00;99224.16;7367087;19;20423;-77
2022/11/22 03:18:55;;;;;;;7.80;2.88;;;;;;;4.89;100.00;99220.69;7367428;19;20014;-77
2022/11/22 03:21:25;;;;;;;11.50;3.25;;;;;;;4.90;100.00;99230.22;7368816;19;20058;-77
2022/11/22 03:23:56;;;;;;;15.57;3.65;;;;;;;4.83;100.00;99228.41;7370938;19;20014;-77
2022/11/22 03:26:25;;;;;;;14.85;3.13;;;;;;;4.82;100.00;99231.00;7367535;19;20744;-77
2022/11/22 03:28:58;;;;;;;11.55;3.42;;;;;;;4.73;100.00;99230.91;7369953;19;20010;-78
2022/11/22 03:31:28;;;;;;;7.72;2.95;;;;;;;4.69;100.00;99235.19;7369448;19;20019;-78
2022/11/22 03:34:00;;;;;;;14.57;3.10;;;;;;;4.74;100.00;99228.31;7367949;19;20025;-77
2022/11/22 03:36:30;;;;;;;11.18;4.03;;;;;;;4.69;100.00;99224.78;7369498;19;20014;-78
2022/11/22 03:39:00;;;;;;;8.05;2.95;;;;;;;4.65;100.00;99223.03;7372631;19;20510;-78
2022/11/22 03:41:30;;;;;;;12.10;3.42;;;;;;;4.63;100.00;99222.13;7374100;19;20022;-78
2022/11/22 03:44:02;;;;;;;13.10;3.17;;;;;;;4.61;100.00;99221.25;7371539;19;20026;-78
2022/11/22 03:46:32;;;;;;;12.57;2.95;;;;;;;4.50;100.00;99228.91;7374857;19;20007;-77
2022/11/22 03:49:02;;;;;;;12.30;3.20;;;;;;;4.54;100.00;99222.03;7368729;19;20015;-78
2022/11/22 03:51:34;;;;;;;14.35;2.95;;;;;;;4.50;100.00;99233.22;7363369;19;20023;-78
2022/11/22 03:54:04;;;;;;;5.97;2.40;;;;;;;4.54;100.00;99232.41;7366200;19;20013;-78
2022/11/22 03:56:33;;;;;;;11.35;2.65;;;;;;;4.52;100.00;99239.31;7375091;19;20452;-78
2022/11/22 03:59:06;;;;;;;9.38;2.92;;;;;;;4.42;100.00;99233.13;7375566;19;20710;-78
2022/11/22 04:01:35;;;;;;;13.18;3.13;;;;;;;4.43;100.00;99247.84;7368768;19;20490;-78
2022/11/22 04:04:05;;;;;;;7.75;2.90;;;;;;;4.40;100.00;99254.75;7366016;19;20034;-80
2022/11/22 04:06:35;;;;;;;10.70;2.75;;;;;;;4.38;100.00;99259.03;7369195;19;20648;-78
2022/11/22 04:09:04;;;;;;;5.50;2.47;;;;;;;4.36;100.00;99263.34;7371931;19;20014;-78
2022/11/22 04:11:34;;;;;;;6.28;2.38;;;;;;;4.30;100.00;99261.53;7368035;19;20832;-77
2022/11/22 04:16:48;;;;;;;7.45;2.75;;;;;;;4.35;100.00;99259.88;7368594;19;20022;-77
2022/11/22 04:19:18;;;;;;;10.45;2.42;;;;;;;4.36;100.00;99258.16;7371297;19;20006;-77
2022/11/22 04:21:45;;;;;;;7.85;2.13;;;;;;;4.34;100.00;99254.66;7370887;19;20047;-78
2022/11/22 04:26:59;;;;;;;9.57;3.50;;;;;;;4.39;100.00;99265.97;7371172;19;20145;-77
2022/11/22 04:29:31;;;;;;;12.15;3.08;;;;;;;4.32;100.00;99275.41;7367959;19;20286;-78
2022/11/22 04:34:43;;;;;;;14.85;3.53;;;;;;;4.40;100.00;99278.09;7370979;19;20015;-78
2022/11/22 04:37:13;;;;;;;7.07;2.47;;;;;;;4.40;100.00;99273.78;7367298;19;20018;-78
2022/11/22 04:39:42;;;;;;;4.68;2.00;;;;;;;4.41;100.00;99277.25;7368485;19;20011;-78
2022/11/22 04:44:57;;;;;;;8.75;2.58;;;;;;;4.37;100.00;99275.47;7371791;19;20025;-78
2022/11/22 04:52:57;;;;;;;9.02;2.90;;;;;;;4.38;100.00;99280.66;7366894;19;20077;-78
2022/11/22 04:55:27;;;;;;;10.70;2.35;;;;;;;4.35;100.00;99279.75;7371434;19;20468;-78
2022/11/22 04:57:56;;;;;;;9.25;2.58;;;;;;;4.34;100.00;99278.00;7369275;19;20034;-77
2022/11/22 05:00:32;;;;;;;8.75;2.47;;;;;;;4.35;100.00;99283.22;7366959;19;20098;-78
2022/11/22 05:03:03;;;;;;;4.88;2.30;;;;;;;4.35;100.00;99280.63;7364865;19;20037;-78
2022/11/22 05:05:36;;;;;;;10.55;2.45;;;;;;;4.37;100.00;99283.25;7367760;19;20025;-73
2022/11/22 05:08:19;;;;;;;11.13;3.03;;;;;;;4.43;100.00;99288.53;7363552;19;20014;-73
2022/11/22 05:14:10;;;;;;;;;;;;;;;;;;;;;
2022/11/22 05:17:11;;;;;;;12.68;3.70;;;;;;;4.39;100.00;99289.34;7364285;19;20014;-73
2022/11/22 05:20:02;;;;;;;9.10;3.38;;;;;;;4.48;100.00;99286.84;7365270;19;21476;-73
2022/11/22 05:25:45;;;;;;;;;;;;;;;4.42;100.00;99298.03;7366955;19;20112;-72
2022/11/22 05:28:45;;;;;;;9.27;3.00;;;;;;;4.43;100.00;99288.53;7365462;19;19990;-73
2022/11/22 05:35:36;;;;;;;;;;;;;;;;;;;;;
2022/11/22 05:38:34;;;;;;;7.57;2.78;;;;;;;4.44;100.00;99285.06;7363335;19;20019;-72
2022/11/22 05:41:27;;;;;;;9.68;3.97;;;;;;;4.44;100.00;99290.25;7367817;19;20359;-72
2022/11/22 05:47:24;;;;;;;9.15;3.60;;;;;;;4.43;100.00;99292.00;7368758;19;20518;-72
2022/11/22 05:57:16;;;;;;;8.52;4.20;;;;;;;4.39;100.00;99287.59;7373024;19;20117;-72
2022/11/22 05:59:59;;;;;;;8.73;3.97;;;;;;;4.37;100.00;99275.47;7381613;19;20027;-72
2022/11/22 06:03:19;;;;;;;10.48;4.03;;;;;;;4.37;100.00;99283.25;7376963;19;20021;-72
2022/11/22 06:12:39;;;;;;;10.07;4.55;;;;;;;4.43;100.00;99279.00;7369516;19;20011;-72
2022/11/22 06:15:32;;;;;;;15.10;5.10;;;;;;;4.42;100.00;99287.66;7367791;19;20583;-72
2022/11/22 06:18:25;;;;;;;12.20;4.88;;;;;;;4.41;100.00;99280.72;7373295;19;20009;-71
2022/11/22 06:21:23;;;;;;;15.23;6.30;;;;;;;4.41;100.00;99275.53;7372857;19;20146;-72
2022/11/22 06:24:34;;;;;;;11.85;4.65;;;;;;;4.45;100.00;99277.31;7372143;19;20007;-72
2022/11/22 06:27:27;;;;;;;13.02;5.47;;;;;;;4.41;100.00;99272.06;7372653;19;20014;-72
2022/11/22 06:30:19;;;;;;;8.88;4.32;;;;;;;4.41;100.00;99275.53;7372148;19;20702;-71
2022/11/22 06:33:16;;;;;;;14.52;4.72;;;;;;;4.42;100.00;99268.59;7371782;19;20021;-71
2022/11/22 06:35:52;;;;;;;10.03;4.73;;;;;;;4.37;100.00;99268.53;7370818;19;20713;-71
2022/11/22 06:38:22;;;;;;;10.82;4.88;;;;;;;4.35;100.00;99266.78;7371699;19;20141;-71
2022/11/22 06:40:55;;;;;;;11.32;4.65;;;;;;;4.36;100.00;99284.09;7371183;19;20473;-71
2022/11/22 06:43:24;;;;;;;11.90;5.38;;;;;;;4.39;100.00;99276.34;7367778;19;20019;-71
2022/11/22 06:46:03;;;;;;;13.20;4.95;;;;;;;4.41;100.00;99267.72;7371076;19;20090;-76
2022/11/22 06:48:35;;;;;;;9.43;4.38;;;;;;;4.43;100.00;99270.34;7371442;19;20014;-76
2022/11/22 06:51:11;;;;;;;8.82;4.70;;;;;;;4.43;100.00;99270.34;7368248;19;20024;-77
2022/11/22 06:53:41;;;;;;;12.73;5.05;;;;;;;4.50;100.00;99272.16;7370856;19;20011;-76
2022/11/22 06:56:20;;;;;;;11.48;4.43;;;;;;;4.45;100.00;99276.44;7373469;19;20553;-79
2022/11/22 06:58:52;;;;;;;10.13;4.30;;;;;;;4.43;100.00;99259.97;7371549;19;20048;-77
2022/11/22 07:01:23;;;;;;;15.10;5.35;;;;;;;4.46;100.00;99272.97;7373728;19;20010;-77
2022/11/22 07:03:56;;;;;;;14.13;5.20;;;;;;;4.46;100.00;99286.84;7367109;19;20014;-79
2022/11/22 07:06:30;;;;;;;;;;;;;;;4.47;100.00;99282.50;7369202;19;20014;-77
2022/11/22 07:09:00;;;;;;;9.75;4.82;;;;;;;4.47;100.00;99285.97;7368462;19;19920;-79
2022/11/22 07:11:34;;;;;;;13.52;5.80;;;;;;;4.48;100.00;99292.91;7366801;19;20146;-79
2022/11/22 07:14:06;;;;;;;12.23;5.47;;;;;;;4.53;100.00;99277.41;7366844;19;20021;-77
2022/11/22 07:16:38;;;;;;;13.13;6.30;;;;;;;4.54;100.00;99282.59;7366751;19;20546;-77
2022/11/22 07:19:08;;;;;;;13.82;5.75;;;;;;;4.57;100.00;99277.47;7368600;19;20011;-79
2022/11/22 07:21:41;;;;;;;12.77;6.05;;;;;;;4.56;100.00;99286.09;7370152;19;20021;-78
2022/11/22 07:24:11;;;;;;;9.52;5.30;;;;;;;4.59;100.00;99280.06;7369468;19;20027;-79
2022/11/22 07:26:40;;;;;;;12.70;6.28;;;;;;;4.56;100.00;99280.91;7370519;19;20010;-78
2022/11/22 07:29:10;;;;;;;14.13;6.28;;;;;;;4.55;100.00;99286.09;7368855;19;20718;-78
2022/11/22 07:31:40;;;;;;;9.80;5.68;;;;;;;4.55;100.00;99284.34;7367818;19;20052;-78
2022/11/22 07:34:09;;;;;;;9.20;4.47;;;;;;;4.59;100.00;99274.88;7368704;19;20014;-77
2022/11/22 07:36:42;;;;;;;14.30;5.30;;;;;;;4.59;100.00;99270.56;7369895;19;20018;-76
2022/11/22 07:39:12;;;;;;;11.90;5.32;;;;;;;4.66;100.00;99276.69;7367907;19;20014;-79
2022/11/22 07:41:42;;;;;;;12.60;5.55;;;;;;;4.62;100.00;99284.44;7372611;19;20657;-79
2022/11/22 07:44:11;;;;;;;11.40;5.68;;;;;;;4.61;100.00;99288.75;7371101;19;20492;-78
2022/11/22 07:46:41;;;;;;;12.45;5.68;;;;;;;4.58;100.00;99293.91;7371098;19;20010;-78
2022/11/22 07:49:11;;;;;;;11.48;5.18;;;;;;;4.59;100.00;99298.25;7369063;19;20011;-78
2022/11/22 07:51:43;;;;;;;12.30;5.07;;;;;;;4.60;100.00;99287.88;7367402;19;20018;-76
2022/11/22 07:54:13;;;;;;;17.33;5.90;;;;;;;4.64;100.00;99293.97;7369474;19;20018;-76
2022/11/22 07:56:43;;;;;;;11.23;4.15;;;;;;;4.64;100.00;99287.91;7371393;19;20014;-76
2022/11/22 07:59:13;;;;;;;13.40;6.00;;;;;;;4.65;100.00;99303.53;7371496;19;20815;-76
2022/11/22 08:01:43;;;;;;;12.55;4.30;;;;;;;4.68;100.00;99292.28;7368024;19;20102;-76
2022/11/22 08:04:13;;;;;;;10.80;4.20;;;;;;;4.67;100.00;99291.44;7371558;19;20009;-76
2022/11/22 08:06:45;;;;;;;10.02;4.65;;;;;;;4.68;100.00;99300.97;7370700;19;20601;-76
2022/11/22 08:09:15;;;;;;;11.88;4.38;;;;;;;4.71;100.00;99305.31;7373658;19;20015;-78
2022/11/22 08:11:48;;;;;;;10.00;5.10;;;;;;;4.72;100.00;99315.72;7369235;19;20013;-77
2022/11/22 08:14:17;;;;;;;12.43;5.63;;;;;;;4.71;100.00;99316.56;7368965;19;20014;-77
2022/11/22 08:16:47;;;;;;;12.15;4.18;;;;;;;4.74;100.00;99305.34;7368421;19;20017;-78
2022/11/22 08:19:16;;;;;;;7.82;3.97;;;;;;;4.79;100.00;99312.34;7370328;19;20134;-78
2022/11/22 08:21:50;;;;;;;11.55;4.38;;;;;;;4.78;100.00;99322.72;7370764;19;20014;-77
2022/11/22 08:24:27;;;;;;;7.25;3.88;;;;;;;4.86;100.00;99326.28;7369548;19;20102;-78
2022/11/22 08:26:56;;;;;;;13.13;4.68;;;;;;;4.89;100.00;99321.13;7367132;19;20507;-76
2022/11/22 08:29:27;;;;;;;13.70;4.13;;;;;;;4.91;100.00;99314.22;7367134;19;20014;-75
2022/11/22 08:31:57;;;;;;;4.60;3.00;;;;;;;4.98;100.00;99317.75;7367054;19;20038;-76
2022/11/22 08:34:27;;;;;;;8.88;4.15;;;;;;;4.94;100.00;99319.44;7368436;19;20014;-76
2022/11/22 08:36:59;;;;;;;11.07;4.53;;;;;;;4.95;100.00;99333.31;7369052;19;20228;-78
2022/11/22 08:39:29;;;;;;;12.90;5.40;;;;;;;4.90;100.00;99323.75;7370122;19;20468;-76
2022/11/22 08:42:00;;;;;;;12.48;4.05;;;;;;;4.88;100.00;99345.34;7369219;19;20019;-77
2022/11/22 08:44:29;;;;;;;9.38;4.72;;;;;;;4.93;100.00;99334.16;7367064;19;20018;-76
2022/11/22 08:46:59;;;;;;;11.95;6.50;;;;;;;4.91;100.00;99341.06;7368947;19;20032;-77
2022/11/22 08:49:28;;;;;;;13.30;5.20;;;;;;;4.92;100.00;99344.53;7368962;19;20015;-77
2022/11/22 08:52:01;;;;;;;9.23;4.22;;;;;;;4.96;100.00;99342.84;7367777;19;20029;-77
2022/11/22 08:54:31;;;;;;;6.25;4.22;;;;;;;4.95;100.00;99326.38;7371330;19;20783;-76
2022/11/22 08:57:06;;;;;;;7.70;4.50;;;;;;;4.97;100.00;99334.19;7372606;19;20109;-76
2022/11/22 08:59:35;;;;;;;9.35;3.85;;;;;;;4.98;100.00;99341.13;7369928;19;20018;-76
2022/11/22 09:02:05;;;;;;;8.80;4.65;;;;;;;4.96;100.00;99342.84;7374543;19;20021;-75
2022/11/22 09:04:34;;;;;;;8.05;5.18;;;;;;;4.97;100.00;99342.00;7373732;19;20033;-75
2022/11/22 09:07:07;;;;;;;8.23;4.60;;;;;;;4.98;100.00;99351.53;7370987;19;20026;-75
2022/11/22 09:09:56;;;;;;;12.10;6.47;;;;;;;4.99;100.00;99353.28;7372883;19;20502;-75
2022/11/22 09:12:26;;;;;;;12.48;4.68;;;;;;;4.99;100.00;99342.88;7368317;19;20018;-75
2022/11/22 09:14:55;;;;;;;11.15;6.15;;;;;;;4.99;100.00;99361.06;7371159;19;20021;-76
2022/11/22 09:17:25;;;;;;;10.32;5.18;;;;;;;5.05;100.00;99364.63;7371507;19;20509;-77
2022/11/22 09:19:55;;;;;;;16.40;5.10;;;;;;;5.03;100.00;99353.34;7368293;19;20298;-75
2022/11/22 09:22:27;;;;;;;16.35;5.82;;;;;;;5.05;100.00;99349.03;7367779;19;20021;-75
2022/11/22 09:24:57;;;;;;;10.25;4.88;;;;;;;5.06;100.00;99352.50;7363294;19;20018;-75
2022/11/22 09:27:27;;;;;;;10.75;5.32;;;;;;;5.07;100.00;99349.91;7367561;19;20010;-75
2022/11/22 09:29:56;;;;;;;11.20;5.00;;;;;;;5.12;100.00;99348.25;7366343;19;20502;-77
2022/11/22 09:32:26;;;;;;;9.70;5.38;;;;;;;5.12;100.00;99360.38;7371732;19;20025;-75
2022/11/22 09:35:02;;;;;;;10.10;5.45;;;;;;;5.15;100.00;99356.06;7374007;19;20056;-75
2022/11/22 09:37:34;;;;;;;6.88;4.32;;;;;;;5.19;100.00;99360.44;7373122;19;20034;-75
2022/11/22 09:40:04;;;;;;;14.18;5.15;;;;;;;5.22;100.00;99356.97;7376371;19;20795;-75
2022/11/22 09:43:09;;;;;;;9.00;5.32;;;;;;;5.26;100.00;99363.97;7371612;19;20011;-75
2022/11/22 09:46:09;;;;;;;11.93;5.97;;;;;;;5.31;100.00;99367.47;7371864;19;20033;-75
2022/11/22 09:48:55;;;;;;;16.27;5.80;;;;;;;5.36;100.00;99360.59;7370839;19;20691;-77
2022/11/22 09:51:30;;;;;;;11.40;5.07;;;;;;;5.41;100.00;99361.53;7373134;19;20018;-72
2022/11/22 09:54:08;;;;;;;7.93;4.40;;;;;;;5.46;100.00;99365.03;7370383;19;20689;-71
2022/11/22 09:56:39;;;;;;;10.30;5.30;;;;;;;5.47;100.00;99364.19;7373149;19;20103;-71
2022/11/22 09:59:15;;;;;;;14.27;4.82;;;;;;;5.44;100.00;99365.88;7370644;19;20017;-71
2022/11/22 10:01:47;;;;;;;6.95;4.05;;;;;;;5.49;100.00;99362.47;7374618;19;20022;-73
2022/11/22 10:04:23;;;;;;;7.70;4.20;;;;;;;5.46;100.00;99361.56;7379829;19;20007;-73
2022/11/22 10:06:57;;;;;;;9.95;4.60;;;;;;;5.48;100.00;99378.94;7377796;19;20019;-74
2022/11/22 10:09:41;;;;;;;11.10;4.53;;;;;;;5.47;100.00;99366.78;7379803;19;20022;-75
2022/11/22 10:12:17;;;;;;;8.85;4.13;;;;;;;5.43;100.00;99372.81;7374449;19;20038;-75
2022/11/22 10:14:55;;;;;;;9.23;4.60;;;;;;;5.51;100.00;99380.69;7377385;19;20018;-76
2022/11/22 10:17:38;;;;;;;7.03;3.90;;;;;;;5.42;100.00;99373.66;7369737;19;20022;-75
2022/11/22 10:20:14;;;;;;;11.15;4.15;;;;;;;5.43;100.00;99364.13;7376061;19;20014;-74
2022/11/22 10:22:44;;;;;;;7.40;4.00;;;;;;;5.42;100.00;99367.59;7375303;19;20333;-73
2022/11/22 10:25:20;;;;;;;14.15;5.05;;;;;;;5.41;100.00;99364.13;7372318;19;20025;-73
2022/11/22 10:27:54;;;;;;;9.50;4.18;;;;;;;5.47;100.00;99364.19;7374910;19;20011;-73
2022/11/22 10:30:34;;;;;;;7.90;4.10;;;;;;;5.49;100.00;99362.47;7373685;19;20014;-73
2022/11/22 10:33:11;;;;;;;10.82;4.38;;;;;;;5.52;100.00;99362.50;7373875;19;20018;-73
2022/11/22 10:35:57;;;;;;;6.10;3.55;;;;;;;5.62;100.00;99352.19;7375255;19;20010;-73
2022/11/22 10:38:52;;;;;;;9.90;3.70;;;;;;;5.57;100.00;99352.16;7373869;19;20499;-73
2022/11/22 10:41:39;;;;;;;7.10;3.92;;;;;;;5.58;100.00;99357.34;7375346;19;20046;-72
2022/11/22 10:44:22;;;;;;;9.10;3.80;;;;;;;5.64;100.00;99356.53;7372017;19;20090;-73
2022/11/22 10:47:01;;;;;;;8.90;3.75;;;;;;;5.68;100.00;99347.91;7372166;19;20014;-73
2022/11/22 10:49:45;;;;;;;8.95;3.25;;;;;;;5.69;100.00;99346.19;7374461;19;20021;-73
2022/11/22 10:52:25;;;;;;;8.95;3.13;;;;;;;5.73;100.00;99345.34;7373640;19;20013;-74
2022/11/22 10:55:04;;;;;;;9.10;3.60;;;;;;;5.75;100.00;99339.31;7369511;19;20010;-73
2022/11/22 10:57:46;;;;;;;6.95;3.17;;;;;;;5.85;100.00;99333.31;7371252;19;20018;-73
2022/11/22 11:00:21;;;;;;;7.80;3.22;;;;;;;5.84;100.00;99338.50;7375511;19;20006;-76
2022/11/22 11:03:11;;;;;;;9.23;3.58;;;;;;;5.94;100.00;99329.97;7372770;19;20563;-74
2022/11/22 11:05:47;;;;;;;12.15;3.45;;;;;;;5.95;100.00;99326.50;7375817;19;20018;-74
2022/11/22 11:08:41;;;;;;;6.53;3.38;;;;;;;6.01;100.00;99328.28;7375018;19;20048;-75
2022/11/22 11:11:36;;;;;;;10.00;3.70;;;;;;;6.05;100.00;99333.50;7374527;19;20697;-76
2022/11/22 11:14:14;;;;;;;10.23;3.83;;;;;;;6.10;100.00;99331.81;7371155;19;20018;-75
2022/11/22 11:16:45;;;;;;;12.35;4.10;;;;;;;6.15;100.00;99334.44;7376106;19;20022;-75
2022/11/22 11:19:19;;;;;;;7.93;3.90;;;;;;;6.16;100.00;99339.66;7371792;19;20014;-74
2022/11/22 11:21:57;;;;;;;7.55;3.58;;;;;;;6.15;100.00;99339.66;7372893;19;20018;-74
2022/11/22 11:24:30;;;;;;;7.57;3.25;;;;;;;6.08;100.00;99328.31;7372717;19;20010;-74
2022/11/22 11:27:02;;;;;;;8.48;3.40;;;;;;;6.14;100.00;99323.16;7373821;19;20010;-74
2022/11/22 11:29:41;;;;;;;6.80;3.17;;;;;;;6.19;100.00;99326.66;7372909;19;20513;-75
2022/11/22 11:32:13;;;;;;;8.93;4.32;;;;;;;6.18;100.00;99319.72;7372485;19;20015;-75
2022/11/22 11:34:52;;;;;;;7.38;3.60;;;;;;;6.27;100.00;99318.88;7371645;19;20014;-74
2022/11/22 11:37:27;;;;;;;14.98;4.30;;;;;;;6.30;100.00;99315.41;7374594;19;20014;-74
2022/11/22 11:39:57;;;;;;;6.07;3.28;;;;;;;6.37;100.00;99312.00;7373211;19;20020;-74
2022/11/22 11:42:32;;;;;;;8.80;4.05;;;;;;;6.35;100.00;99311.13;7370397;19;20692;-74
2022/11/22 11:45:30;;;;;;;7.72;3.97;;;;;;;6.40;100.00;99309.41;7371701;19;20021;-75
2022/11/22 11:47:59;;;;;;;10.00;4.90;;;;;;;6.37;100.00;99314.59;7370403;19;20021;-75
2022/11/22 11:50:31;;;;;;;11.75;4.15;;;;;;;6.37;100.00;99312.00;7372420;19;20015;-75
2022/11/22 11:53:06;;;;;;;7.50;4.15;;;;;;;6.27;100.00;99315.41;7371032;19;20067;-75
2022/11/22 11:55:38;;;;;;;7.82;3.75;;;;;;;6.30;100.00;99310.22;7367827;19;20021;-75
2022/11/22 11:58:21;;;;;;;9.95;4.45;;;;;;;6.31;100.00;99314.56;7367968;19;20050;-74
2022/11/22 12:00:54;;;;;;;10.23;4.50;;;;;;;6.27;100.00;99302.38;7369759;19;20006;-75
2022/11/22 12:03:24;;;;;;;11.15;4.07;;;;;;;6.32;100.00;99308.50;7374217;19;20014;-75
2022/11/22 12:06:13;;;;;;;8.93;4.25;;;;;;;6.42;100.00;99305.06;7366973;19;20018;-75
2022/11/22 12:08:43;;;;;;;8.55;4.03;;;;;;;6.40;100.00;99296.38;7367528;19;20022;-74
2022/11/22 12:11:18;;;;;;;9.93;4.28;;;;;;;6.39;100.00;99292.91;7368347;19;20015;-74
2022/11/22 12:13:55;;;;;;;8.38;3.90;;;;;;;6.42;100.00;99298.13;7368977;19;20086;-74
2022/11/22 12:16:50;;;;;;;9.70;3.80;;;;;;;6.39;100.00;99292.91;7369095;19;20011;-74
2022/11/22 12:19:29;;;;;;;10.80;5.05;;;;;;;6.29;100.00;99316.28;7368148;19;20022;-74
2022/11/22 12:22:03;;;;;;;6.82;3.63;;;;;;;6.33;100.00;99312.84;7369063;19;20015;-74
2022/11/22 12:24:37;;;;;;;;;;;;;;;6.28;100.00;99302.41;7373396;19;20018;-74
2022/11/22 12:27:27;;;;;;;8.05;3.83;;;;;;;6.30;100.00;99302.41;7367658;19;19935;-74
2022/11/22 12:29:57;;;;;;;8.45;3.38;;;;;;;6.36;100.00;99297.22;7364666;19;20017;-74
2022/11/22 12:32:34;;;;;;;5.38;3.42;;;;;;;6.34;100.00;99298.94;7368480;19;20014;-74
2022/11/22 12:35:12;;;;;;;9.65;4.05;;;;;;;6.31;100.00;99305.03;7368484;19;20014;-74
2022/11/22 12:37:46;;;;;;;7.40;4.00;;;;;;;6.31;100.00;99310.22;7370108;19;20724;-74
2022/11/22 12:40:19;;;;;;;10.48;4.25;;;;;;;6.38;100.00;99303.31;7369679;19;20015;-74
2022/11/22 12:42:54;;;;;;;10.63;4.10;;;;;;;6.40;100.00;99310.28;7372068;19;20773;-74
2022/11/22 12:45:28;;;;;;;8.73;4.07;;;;;;;6.39;100.00;99313.75;7371783;19;20014;-74
2022/11/22 12:48:05;;;;;;;9.65;3.95;;;;;;;6.40;100.00;99312.88;7371159;19;20577;-74
2022/11/22 12:50:41;;;;;;;8.13;3.60;;;;;;;6.44;100.00;99311.16;7372331;19;20019;-74
2022/11/22 12:53:15;;;;;;;6.60;3.70;;;;;;;6.44;100.00;99316.38;7371161;19;20030;-74
2022/11/22 12:55:52;;;;;;;8.30;3.95;;;;;;;6.40;100.00;99320.69;7373801;19;20812;-74